Jan Ritscher — A8WZ8 — position and weather

sailwx.info

Track history (hours):
 
Tides and Currents Weather Stations Pressure Air Temp Water Temp Dewpoint Dewpoint Depression Visibility Wind Speed Wind Dir Waves Ship Positions

Jan Ritscher

Last reported at 2018-Feb-15 23:15 UTC. Time now 2018-Feb-18 22:23 UTC.
Position N 36°07' W 005°25'.

Length 208 m; draft 9.6 m.

Type: Ship. MMSI: 636092101.

Date/timePositionNaut miles runAvg speedWind from/ knotsBaromVisibWave heightAir tempDewpointWater temp
2018-Feb-15 23:15N 36°07' W 005°25'0 0.0
2018-Feb-15 22:51N 36°07' W 005°25'0 0.0
2018-Feb-15 22:27N 36°07' W 005°25'0 0.0
2018-Feb-15 22:00N 36°07' W 005°25'0 0.0
2018-Feb-15 21:30N 36°07' W 005°25'0 0.0
2018-Feb-15 20:03N 36°07' W 005°25'0 0.1
2018-Feb-15 19:57N 36°07' W 005°25'0 0.0
2018-Feb-15 19:30N 36°07' W 005°25'0 0.0
2018-Feb-15 19:00N 36°07' W 005°25'0 0.0
2018-Feb-15 17:45N 36°07' W 005°25'0 0.0
2018-Feb-15 17:21N 36°07' W 005°25'0 0.0
2018-Feb-15 16:57N 36°07' W 005°25'0 0.0
2018-Feb-15 09:14N 36°07' W 005°25'2 5.3
2018-Feb-15 08:56N 36°09' W 005°25'1 0.9
2018-Feb-15 07:50N 36°08' W 005°26'0 0.0
2018-Feb-15 07:29N 36°08' W 005°26'0 0.0
2018-Feb-15 06:59N 36°08' W 005°26'0 0.0
2018-Feb-15 06:20N 36°08' W 005°26'0 0.0
2018-Feb-15 05:59N 36°08' W 005°26'0 0.0
2018-Feb-15 05:29N 36°08' W 005°26'0 0.0
2018-Feb-15 04:59N 36°08' W 005°26'0 0.0
2018-Feb-15 04:29N 36°08' W 005°26'0 0.0
2018-Feb-15 03:56N 36°08' W 005°26'0 0.0
2018-Feb-15 03:29N 36°08' W 005°26'0 0.0
2018-Feb-15 02:53N 36°08' W 005°26'0 0.0
2018-Feb-15 02:29N 36°08' W 005°26'0 0.0
2018-Feb-15 01:53N 36°08' W 005°26'0 0.0
2018-Feb-15 01:26N 36°08' W 005°26'0 0.0
2018-Feb-15 00:59N 36°08' W 005°26'0 0.0
2018-Feb-15 00:29N 36°08' W 005°26'0 0.0
2018-Feb-15 00:00N 36°08' W 005°26'1 2.9
2018-Feb-14 23:30N 36°08' W 005°24'4 7.0
2018-Feb-14 23:00N 36°05' W 005°23'5 9.1
2018-Feb-14 22:30N 36°03' W 005°17'4 7.5
2018-Feb-14 22:00N 36°04' W 005°13'3 0.2
2018-Feb-14 09:21N 36°01' W 005°11'411.3
2018-Feb-14 09:00N 36°01' W 005°15'612.1
2018-Feb-14 08:30N 35°59' W 005°23'611.7
2018-Feb-14 08:00N 35°56' W 005°29'  
2018-Feb-08 06:00N 09°44' W 015°55'714.5
2018-Feb-08 05:30N 09°39' W 015°50'714.3
2018-Feb-08 05:00N 09°33' W 015°45'714.4
2018-Feb-08 04:30N 09°28' W 015°40'714.4
2018-Feb-08 04:00N 09°23' W 015°35'714.7
2018-Feb-08 03:30N 09°18' W 015°30'714.8
2018-Feb-08 03:00N 09°12' W 015°25'2315.1
2018-Feb-08 01:30N 08°55' W 015°10'815.4
2018-Feb-08 01:00N 08°49' W 015°04'815.6
2018-Feb-08 00:30N 08°44' W 014°59'815.4
2018-Feb-08 00:00N 08°38' W 014°54'815.5
2018-Feb-07 23:30N 08°32' W 014°49'815.6
2018-Feb-07 23:00N 08°27' W 014°43'815.6
2018-Feb-07 22:30N 08°21' W 014°38'815.7
2018-Feb-07 22:00N 08°15' W 014°32'815.9
2018-Feb-07 21:31N 08°10' W 014°27'  
Track history (hours):
 
Tides and Currents Weather Stations Pressure Air Temp Water Temp Dewpoint Dewpoint Depression Visibility Wind Speed Wind Dir Waves Ship Positions

Jan Ritscher

Last reported at 2018-Feb-15 23:15 UTC. Time now 2018-Feb-18 22:23 UTC.
Position N 36°07' W 005°25'.

Length 208 m; draft 9.6 m.

Type: Ship. MMSI: 636092101.

Date/timePositionNaut miles runAvg speedWind from/ knotsBaromVisibWave heightAir tempDewpointWater temp
2018-Feb-15 23:15N 36°07' W 005°25'0 0.0
2018-Feb-15 22:51N 36°07' W 005°25'0 0.0
2018-Feb-15 22:27N 36°07' W 005°25'0 0.0
2018-Feb-15 22:00N 36°07' W 005°25'0 0.0
2018-Feb-15 21:30N 36°07' W 005°25'0 0.0
2018-Feb-15 20:03N 36°07' W 005°25'0 0.1
2018-Feb-15 19:57N 36°07' W 005°25'0 0.0
2018-Feb-15 19:30N 36°07' W 005°25'0 0.0
2018-Feb-15 19:00N 36°07' W 005°25'0 0.0
2018-Feb-15 17:45N 36°07' W 005°25'0 0.0
2018-Feb-15 17:21N 36°07' W 005°25'0 0.0
2018-Feb-15 16:57N 36°07' W 005°25'0 0.0
2018-Feb-15 09:14N 36°07' W 005°25'2 5.3
2018-Feb-15 08:56N 36°09' W 005°25'1 0.9
2018-Feb-15 07:50N 36°08' W 005°26'0 0.0
2018-Feb-15 07:29N 36°08' W 005°26'0 0.0
2018-Feb-15 06:59N 36°08' W 005°26'0 0.0
2018-Feb-15 06:20N 36°08' W 005°26'0 0.0
2018-Feb-15 05:59N 36°08' W 005°26'0 0.0
2018-Feb-15 05:29N 36°08' W 005°26'0 0.0
2018-Feb-15 04:59N 36°08' W 005°26'0 0.0
2018-Feb-15 04:29N 36°08' W 005°26'0 0.0
2018-Feb-15 03:56N 36°08' W 005°26'0 0.0
2018-Feb-15 03:29N 36°08' W 005°26'0 0.0
2018-Feb-15 02:53N 36°08' W 005°26'0 0.0
2018-Feb-15 02:29N 36°08' W 005°26'0 0.0
2018-Feb-15 01:53N 36°08' W 005°26'0 0.0
2018-Feb-15 01:26N 36°08' W 005°26'0 0.0
2018-Feb-15 00:59N 36°08' W 005°26'0 0.0
2018-Feb-15 00:29N 36°08' W 005°26'0 0.0
2018-Feb-15 00:00N 36°08' W 005°26'1 2.9
2018-Feb-14 23:30N 36°08' W 005°24'4 7.0
2018-Feb-14 23:00N 36°05' W 005°23'5 9.1
2018-Feb-14 22:30N 36°03' W 005°17'4 7.5
2018-Feb-14 22:00N 36°04' W 005°13'3 0.2
2018-Feb-14 09:21N 36°01' W 005°11'411.3
2018-Feb-14 09:00N 36°01' W 005°15'612.1
2018-Feb-14 08:30N 35°59' W 005°23'611.7
2018-Feb-14 08:00N 35°56' W 005°29'  
2018-Feb-08 06:00N 09°44' W 015°55'714.5
2018-Feb-08 05:30N 09°39' W 015°50'714.3
2018-Feb-08 05:00N 09°33' W 015°45'714.4
2018-Feb-08 04:30N 09°28' W 015°40'714.4
2018-Feb-08 04:00N 09°23' W 015°35'714.7
2018-Feb-08 03:30N 09°18' W 015°30'714.8
2018-Feb-08 03:00N 09°12' W 015°25'2315.1
2018-Feb-08 01:30N 08°55' W 015°10'815.4
2018-Feb-08 01:00N 08°49' W 015°04'815.6
2018-Feb-08 00:30N 08°44' W 014°59'815.4
2018-Feb-08 00:00N 08°38' W 014°54'815.5
2018-Feb-07 23:30N 08°32' W 014°49'815.6
2018-Feb-07 23:00N 08°27' W 014°43'815.6
2018-Feb-07 22:30N 08°21' W 014°38'815.7
2018-Feb-07 22:00N 08°15' W 014°32'815.9
2018-Feb-07 21:31N 08°10' W 014°27'  

Dump ship's entire track history